sensor_id;sensor_type;location;lat;lon;timestamp;temperature;humidity
21861;DHT22;11095;48.066;8.540;2022-09-09T00:07:21;11.60;99.90
21861;DHT22;11095;48.066;8.540;2022-09-09T00:21:14;11.40;99.90
21861;DHT22;11095;48.066;8.540;2022-09-09T00:23:55;11.40;99.90
21861;DHT22;11095;48.066;8.540;2022-09-09T00:32:00;11.30;99.90
21861;DHT22;11095;48.066;8.540;2022-09-09T00:34:31;11.30;99.90
21861;DHT22;11095;48.066;8.540;2022-09-09T00:36:58;11.30;99.90
21861;DHT22;11095;48.066;8.540;2022-09-09T00:39:41;11.30;99.90
21861;DHT22;11095;48.066;8.540;2022-09-09T00:42:24;11.20;99.90
21861;DHT22;11095;48.066;8.540;2022-09-09T00:45:24;11.20;99.90
21861;DHT22;11095;48.066;8.540;2022-09-09T00:47:56;11.20;99.90
21861;DHT22;11095;48.066;8.540;2022-09-09T00:58:37;11.10;99.90
21861;DHT22;11095;48.066;8.540;2022-09-09T01:03:38;11.00;99.90
21861;DHT22;11095;48.066;8.540;2022-09-09T01:17:03;11.10;99.90
21861;DHT22;11095;48.066;8.540;2022-09-09T01:22:51;11.10;99.90
21861;DHT22;11095;48.066;8.540;2022-09-09T01:28:11;11.30;99.90
21861;DHT22;11095;48.066;8.540;2022-09-09T01:30:41;11.30;99.90
21861;DHT22;11095;48.066;8.540;2022-09-09T01:33:15;11.40;99.90
21861;DHT22;11095;48.066;8.540;2022-09-09T01:38:32;11.50;99.90
21861;DHT22;11095;48.066;8.540;2022-09-09T01:40:58;11.60;99.90
21861;DHT22;11095;48.066;8.540;2022-09-09T01:43:25;11.60;99.90
21861;DHT22;11095;48.066;8.540;2022-09-09T01:45:55;11.70;99.90
21861;DHT22;11095;48.066;8.540;2022-09-09T01:48:23;11.70;99.90
21861;DHT22;11095;48.066;8.540;2022-09-09T01:50:50;11.70;99.90
21861;DHT22;11095;48.066;8.540;2022-09-09T01:53:17;11.70;99.90
21861;DHT22;11095;48.066;8.540;2022-09-09T02:01:33;11.80;99.90
21861;DHT22;11095;48.066;8.540;2022-09-09T02:04:27;11.80;99.90
21861;DHT22;11095;48.066;8.540;2022-09-09T02:06:56;11.80;99.90
21861;DHT22;11095;48.066;8.540;2022-09-09T02:09:24;11.90;99.90
21861;DHT22;11095;48.066;8.540;2022-09-09T02:11:57;11.80;99.90
21861;DHT22;11095;48.066;8.540;2022-09-09T02:14:30;11.90;99.90
21861;DHT22;11095;48.066;8.540;2022-09-09T02:17:10;11.90;99.90
21861;DHT22;11095;48.066;8.540;2022-09-09T02:19:44;12.00;99.90
21861;DHT22;11095;48.066;8.540;2022-09-09T02:22:18;12.00;99.90
21861;DHT22;11095;48.066;8.540;2022-09-09T02:24:45;12.00;99.90
21861;DHT22;11095;48.066;8.540;2022-09-09T02:27:13;12.10;99.90
21861;DHT22;11095;48.066;8.540;2022-09-09T02:29:41;12.10;99.90
21861;DHT22;11095;48.066;8.540;2022-09-09T02:32:27;12.10;99.90
21861;DHT22;11095;48.066;8.540;2022-09-09T02:35:02;12.00;99.90
21861;DHT22;11095;48.066;8.540;2022-09-09T02:37:36;12.00;99.90
21861;DHT22;11095;48.066;8.540;2022-09-09T02:40:05;11.90;99.90
21861;DHT22;11095;48.066;8.540;2022-09-09T02:42:32;11.90;99.90
21861;DHT22;11095;48.066;8.540;2022-09-09T02:44:57;11.80;99.90
21861;DHT22;11095;48.066;8.540;2022-09-09T02:47:34;11.80;99.90
21861;DHT22;11095;48.066;8.540;2022-09-09T02:58:06;11.70;99.90
21861;DHT22;11095;48.066;8.540;2022-09-09T03:00:33;11.70;99.90
21861;DHT22;11095;48.066;8.540;2022-09-09T03:03:02;11.60;99.90
21861;DHT22;11095;48.066;8.540;2022-09-09T03:05:28;11.60;99.90
21861;DHT22;11095;48.066;8.540;2022-09-09T03:07:54;11.60;99.90
21861;DHT22;11095;48.066;8.540;2022-09-09T03:10:20;11.50;99.90
21861;DHT22;11095;48.066;8.540;2022-09-09T03:12:46;11.50;99.90
21861;DHT22;11095;48.066;8.540;2022-09-09T03:15:12;11.40;99.90
21861;DHT22;11095;48.066;8.540;2022-09-09T03:17:38;11.40;99.90
21861;DHT22;11095;48.066;8.540;2022-09-09T03:20:04;11.40;99.90
21861;DHT22;11095;48.066;8.540;2022-09-09T03:22:30;11.40;99.90
21861;DHT22;11095;48.066;8.540;2022-09-09T03:24:55;11.40;99.90
21861;DHT22;11095;48.066;8.540;2022-09-09T03:27:21;11.40;99.90
21861;DHT22;11095;48.066;8.540;2022-09-09T03:29:47;11.30;99.90
21861;DHT22;11095;48.066;8.540;2022-09-09T03:32:12;11.30;99.90
21861;DHT22;11095;48.066;8.540;2022-09-09T03:34:38;11.30;99.90
21861;DHT22;11095;48.066;8.540;2022-09-09T03:37:07;11.20;99.90
21861;DHT22;11095;48.066;8.540;2022-09-09T03:39:33;11.20;99.90
21861;DHT22;11095;48.066;8.540;2022-09-09T03:41:58;11.20;99.90
21861;DHT22;11095;48.066;8.540;2022-09-09T03:44:24;11.10;99.90
21861;DHT22;11095;48.066;8.540;2022-09-09T03:46:50;11.10;99.90
21861;DHT22;11095;48.066;8.540;2022-09-09T03:49:15;11.00;99.90
21861;DHT22;11095;48.066;8.540;2022-09-09T03:51:42;11.00;99.90
21861;DHT22;11095;48.066;8.540;2022-09-09T03:54:08;11.00;99.90
21861;DHT22;11095;48.066;8.540;2022-09-09T03:56:36;11.00;99.90
21861;DHT22;11095;48.066;8.540;2022-09-09T03:59:03;11.10;99.90
21861;DHT22;11095;48.066;8.540;2022-09-09T04:01:28;11.10;99.90
21861;DHT22;11095;48.066;8.540;2022-09-09T04:03:54;11.10;99.90
21861;DHT22;11095;48.066;8.540;2022-09-09T04:06:23;11.10;99.90
21861;DHT22;11095;48.066;8.540;2022-09-09T04:08:49;11.10;99.90
21861;DHT22;11095;48.066;8.540;2022-09-09T04:11:17;11.10;99.90
21861;DHT22;11095;48.066;8.540;2022-09-09T04:13:43;11.20;99.90
21861;DHT22;11095;48.066;8.540;2022-09-09T04:16:11;11.20;99.90
21861;DHT22;11095;48.066;8.540;2022-09-09T04:18:38;11.20;99.90
21861;DHT22;11095;48.066;8.540;2022-09-09T04:21:04;11.20;99.90
21861;DHT22;11095;48.066;8.540;2022-09-09T04:23:32;11.30;99.90
21861;DHT22;11095;48.066;8.540;2022-09-09T04:26:00;11.30;99.90
21861;DHT22;11095;48.066;8.540;2022-09-09T04:28:28;11.30;99.90
21861;DHT22;11095;48.066;8.540;2022-09-09T04:30:54;11.30;99.90
21861;DHT22;11095;48.066;8.540;2022-09-09T04:33:23;11.30;99.90
21861;DHT22;11095;48.066;8.540;2022-09-09T04:35:52;11.30;99.90
21861;DHT22;11095;48.066;8.540;2022-09-09T04:38:19;11.40;99.90
21861;DHT22;11095;48.066;8.540;2022-09-09T04:40:49;11.40;99.90
21861;DHT22;11095;48.066;8.540;2022-09-09T04:43:17;11.40;99.90
21861;DHT22;11095;48.066;8.540;2022-09-09T04:45:47;11.50;99.90
21861;DHT22;11095;48.066;8.540;2022-09-09T04:48:13;11.50;99.90
21861;DHT22;11095;48.066;8.540;2022-09-09T04:50:39;11.50;99.90
21861;DHT22;11095;48.066;8.540;2022-09-09T04:53:06;11.50;99.90
21861;DHT22;11095;48.066;8.540;2022-09-09T04:55:32;11.50;99.90
21861;DHT22;11095;48.066;8.540;2022-09-09T04:58:06;11.50;99.90
21861;DHT22;11095;48.066;8.540;2022-09-09T05:00:33;11.50;99.90
21861;DHT22;11095;48.066;8.540;2022-09-09T05:03:03;11.50;99.90
21861;DHT22;11095;48.066;8.540;2022-09-09T05:05:29;11.50;99.90
21861;DHT22;11095;48.066;8.540;2022-09-09T05:08:04;11.50;99.90
21861;DHT22;11095;48.066;8.540;2022-09-09T05:10:30;11.50;99.90
21861;DHT22;11095;48.066;8.540;2022-09-09T05:12:56;11.50;99.90
21861;DHT22;11095;48.066;8.540;2022-09-09T05:15:22;11.50;99.90
21861;DHT22;11095;48.066;8.540;2022-09-09T05:17:47;11.40;99.90
21861;DHT22;11095;48.066;8.540;2022-09-09T05:20:13;11.50;99.90
21861;DHT22;11095;48.066;8.540;2022-09-09T05:22:39;11.50;99.90
21861;DHT22;11095;48.066;8.540;2022-09-09T05:25:04;11.50;99.90
21861;DHT22;11095;48.066;8.540;2022-09-09T05:27:30;11.60;99.90
21861;DHT22;11095;48.066;8.540;2022-09-09T05:29:57;11.70;99.90
21861;DHT22;11095;48.066;8.540;2022-09-09T05:32:23;11.80;99.90
21861;DHT22;11095;48.066;8.540;2022-09-09T05:34:49;11.90;99.90
21861;DHT22;11095;48.066;8.540;2022-09-09T05:37:15;12.10;99.90
21861;DHT22;11095;48.066;8.540;2022-09-09T05:39:42;12.30;99.90
21861;DHT22;11095;48.066;8.540;2022-09-09T05:42:07;12.50;99.90
21861;DHT22;11095;48.066;8.540;2022-09-09T05:44:33;12.60;99.90
21861;DHT22;11095;48.066;8.540;2022-09-09T05:46:59;12.80;99.90
21861;DHT22;11095;48.066;8.540;2022-09-09T05:49:25;12.80;99.90
21861;DHT22;11095;48.066;8.540;2022-09-09T05:51:50;12.80;99.90
21861;DHT22;11095;48.066;8.540;2022-09-09T05:54:16;12.80;99.90
21861;DHT22;11095;48.066;8.540;2022-09-09T05:56:42;12.80;99.90
21861;DHT22;11095;48.066;8.540;2022-09-09T05:59:08;12.80;99.90
21861;DHT22;11095;48.066;8.540;2022-09-09T06:01:36;12.80;99.90
21861;DHT22;11095;48.066;8.540;2022-09-09T06:04:05;12.80;99.90
21861;DHT22;11095;48.066;8.540;2022-09-09T06:06:34;12.90;99.90
21861;DHT22;11095;48.066;8.540;2022-09-09T06:09:03;12.90;99.90
21861;DHT22;11095;48.066;8.540;2022-09-09T06:11:30;12.90;99.90
21861;DHT22;11095;48.066;8.540;2022-09-09T06:13:59;12.90;99.90
21861;DHT22;11095;48.066;8.540;2022-09-09T06:16:27;13.00;99.90
21861;DHT22;11095;48.066;8.540;2022-09-09T06:18:54;13.10;99.90
21861;DHT22;11095;48.066;8.540;2022-09-09T06:21:38;13.30;99.90
21861;DHT22;11095;48.066;8.540;2022-09-09T06:24:04;13.40;99.90
21861;DHT22;11095;48.066;8.540;2022-09-09T06:26:34;13.60;99.90
21861;DHT22;11095;48.066;8.540;2022-09-09T06:29:01;13.80;99.90
21861;DHT22;11095;48.066;8.540;2022-09-09T06:31:30;14.20;99.90
21861;DHT22;11095;48.066;8.540;2022-09-09T06:33:58;14.90;99.90
21861;DHT22;11095;48.066;8.540;2022-09-09T06:36:25;16.30;99.90
21861;DHT22;11095;48.066;8.540;2022-09-09T06:38:52;17.20;99.90
21861;DHT22;11095;48.066;8.540;2022-09-09T06:41:19;17.30;99.90
21861;DHT22;11095;48.066;8.540;2022-09-09T06:43:46;17.10;99.90
21861;DHT22;11095;48.066;8.540;2022-09-09T06:48:40;16.20;99.90
21861;DHT22;11095;48.066;8.540;2022-09-09T06:53:41;15.50;99.90
21861;DHT22;11095;48.066;8.540;2022-09-09T06:58:37;15.10;99.90
21861;DHT22;11095;48.066;8.540;2022-09-09T07:01:06;15.00;99.90
21861;DHT22;11095;48.066;8.540;2022-09-09T07:03:32;14.90;99.90
21861;DHT22;11095;48.066;8.540;2022-09-09T07:05:59;14.80;99.90
21861;DHT22;11095;48.066;8.540;2022-09-09T07:08:25;14.80;99.90
21861;DHT22;11095;48.066;8.540;2022-09-09T07:10:51;14.80;99.90
21861;DHT22;11095;48.066;8.540;2022-09-09T07:13:23;14.80;99.90
21861;DHT22;11095;48.066;8.540;2022-09-09T07:15:51;14.80;99.90
21861;DHT22;11095;48.066;8.540;2022-09-09T07:18:16;15.00;99.90
21861;DHT22;11095;48.066;8.540;2022-09-09T07:20:42;15.20;99.90
21861;DHT22;11095;48.066;8.540;2022-09-09T07:23:08;16.00;99.90
21861;DHT22;11095;48.066;8.540;2022-09-09T07:25:33;17.30;99.90
21861;DHT22;11095;48.066;8.540;2022-09-09T07:27:59;17.90;99.90
21861;DHT22;11095;48.066;8.540;2022-09-09T07:30:25;17.80;99.90
21861;DHT22;11095;48.066;8.540;2022-09-09T07:32:51;17.40;99.90
21861;DHT22;11095;48.066;8.540;2022-09-09T07:35:17;17.00;99.90
21861;DHT22;11095;48.066;8.540;2022-09-09T07:37:43;16.50;99.90
21861;DHT22;11095;48.066;8.540;2022-09-09T07:40:10;16.20;99.90
21861;DHT22;11095;48.066;8.540;2022-09-09T07:42:36;15.90;99.90
21861;DHT22;11095;48.066;8.540;2022-09-09T07:45:03;15.70;99.90
21861;DHT22;11095;48.066;8.540;2022-09-09T07:47:29;15.50;99.90
21861;DHT22;11095;48.066;8.540;2022-09-09T07:49:55;15.30;99.90
21861;DHT22;11095;48.066;8.540;2022-09-09T07:52:21;15.10;99.90
21861;DHT22;11095;48.066;8.540;2022-09-09T07:54:47;15.10;99.90
21861;DHT22;11095;48.066;8.540;2022-09-09T07:57:13;15.20;99.90
21861;DHT22;11095;48.066;8.540;2022-09-09T07:59:38;15.40;99.90
21861;DHT22;11095;48.066;8.540;2022-09-09T08:02:04;15.80;99.90
21861;DHT22;11095;48.066;8.540;2022-09-09T08:04:30;16.50;99.90
21861;DHT22;11095;48.066;8.540;2022-09-09T08:06:58;17.20;99.90
21861;DHT22;11095;48.066;8.540;2022-09-09T08:09:25;18.00;99.90
21861;DHT22;11095;48.066;8.540;2022-09-09T08:11:54;18.80;99.90
21861;DHT22;11095;48.066;8.540;2022-09-09T08:14:22;20.30;99.90
21861;DHT22;11095;48.066;8.540;2022-09-09T08:16:49;22.20;99.90
21861;DHT22;11095;48.066;8.540;2022-09-09T08:19:15;23.90;99.90
21861;DHT22;11095;48.066;8.540;2022-09-09T08:21:41;25.50;99.90
21861;DHT22;11095;48.066;8.540;2022-09-09T08:24:09;26.60;99.90
21861;DHT22;11095;48.066;8.540;2022-09-09T08:26:37;27.20;99.90
21861;DHT22;11095;48.066;8.540;2022-09-09T08:29:05;26.60;99.90
21861;DHT22;11095;48.066;8.540;2022-09-09T08:31:36;25.30;99.90
21861;DHT22;11095;48.066;8.540;2022-09-09T08:34:03;24.10;99.90
21861;DHT22;11095;48.066;8.540;2022-09-09T08:36:31;22.90;99.90
21861;DHT22;11095;48.066;8.540;2022-09-09T08:38:59;21.80;99.90
21861;DHT22;11095;48.066;8.540;2022-09-09T08:52:12;20.30;99.90
21861;DHT22;11095;48.066;8.540;2022-09-09T08:54:38;20.20;99.90
21861;DHT22;11095;48.066;8.540;2022-09-09T08:57:11;20.10;99.90
21861;DHT22;11095;48.066;8.540;2022-09-09T08:59:39;20.70;99.90
21861;DHT22;11095;48.066;8.540;2022-09-09T09:03:04;21.70;99.90
21861;DHT22;11095;48.066;8.540;2022-09-09T09:05:47;23.20;99.90
21861;DHT22;11095;48.066;8.540;2022-09-09T09:08:20;24.00;99.90
21861;DHT22;11095;48.066;8.540;2022-09-09T09:10:53;24.30;99.90
21861;DHT22;11095;48.066;8.540;2022-09-09T09:13:44;24.00;99.90
21861;DHT22;11095;48.066;8.540;2022-09-09T09:16:29;23.40;99.90
21861;DHT22;11095;48.066;8.540;2022-09-09T09:18:58;22.70;99.90
21861;DHT22;11095;48.066;8.540;2022-09-09T09:23:57;21.00;99.90
21861;DHT22;11095;48.066;8.540;2022-09-09T09:26:30;20.30;99.90
21861;DHT22;11095;48.066;8.540;2022-09-09T09:28:59;19.80;99.90
21861;DHT22;11095;48.066;8.540;2022-09-09T09:31:26;19.50;99.90
21861;DHT22;11095;48.066;8.540;2022-09-09T09:33:56;19.30;99.90
21861;DHT22;11095;48.066;8.540;2022-09-09T09:36:44;19.70;99.90
21861;DHT22;11095;48.066;8.540;2022-09-09T09:41:49;21.40;99.90
21861;DHT22;11095;48.066;8.540;2022-09-09T09:44:31;22.10;99.90
21861;DHT22;11095;48.066;8.540;2022-09-09T09:47:15;22.80;99.90
21861;DHT22;11095;48.066;8.540;2022-09-09T09:49:57;23.30;99.90
21861;DHT22;11095;48.066;8.540;2022-09-09T09:52:29;23.70;99.90
21861;DHT22;11095;48.066;8.540;2022-09-09T09:54:57;23.90;99.90
21861;DHT22;11095;48.066;8.540;2022-09-09T09:57:27;24.00;99.90
21861;DHT22;11095;48.066;8.540;2022-09-09T10:00:15;23.80;99.90
21861;DHT22;11095;48.066;8.540;2022-09-09T10:02:45;23.40;99.90
21861;DHT22;11095;48.066;8.540;2022-09-09T10:05:22;23.30;99.90
21861;DHT22;11095;48.066;8.540;2022-09-09T10:08:24;23.20;99.90
21861;DHT22;11095;48.066;8.540;2022-09-09T10:13:58;23.40;99.90
21861;DHT22;11095;48.066;8.540;2022-09-09T10:16:50;23.30;99.90
21861;DHT22;11095;48.066;8.540;2022-09-09T10:21:59;23.30;99.90
21861;DHT22;11095;48.066;8.540;2022-09-09T10:27:45;23.30;99.90
21861;DHT22;11095;48.066;8.540;2022-09-09T10:30:22;23.30;99.90
21861;DHT22;11095;48.066;8.540;2022-09-09T10:38:16;22.90;99.90
21861;DHT22;11095;48.066;8.540;2022-09-09T10:48:58;22.90;99.90
21861;DHT22;11095;48.066;8.540;2022-09-09T10:51:51;22.90;99.90
21861;DHT22;11095;48.066;8.540;2022-09-09T10:57:11;22.60;99.90
21861;DHT22;11095;48.066;8.540;2022-09-09T10:59:42;22.50;99.90
21861;DHT22;11095;48.066;8.540;2022-09-09T11:02:28;22.30;99.90
21861;DHT22;11095;48.066;8.540;2022-09-09T11:05:14;21.90;99.90
21861;DHT22;11095;48.066;8.540;2022-09-09T11:07:44;21.80;99.90
21861;DHT22;11095;48.066;8.540;2022-09-09T11:10:29;21.50;99.90
21861;DHT22;11095;48.066;8.540;2022-09-09T11:13:04;21.40;99.90
21861;DHT22;11095;48.066;8.540;2022-09-09T11:15:52;21.30;99.90
21861;DHT22;11095;48.066;8.540;2022-09-09T11:18:23;21.40;99.90
21861;DHT22;11095;48.066;8.540;2022-09-09T11:20:53;21.40;99.90
21861;DHT22;11095;48.066;8.540;2022-09-09T11:23:27;21.50;99.90
21861;DHT22;11095;48.066;8.540;2022-09-09T11:26:00;21.60;99.90
21861;DHT22;11095;48.066;8.540;2022-09-09T11:34:38;21.40;99.90
21861;DHT22;11095;48.066;8.540;2022-09-09T11:37:33;21.50;99.90
21861;DHT22;11095;48.066;8.540;2022-09-09T11:42:42;21.50;99.90
21861;DHT22;11095;48.066;8.540;2022-09-09T11:45:20;21.20;99.90
21861;DHT22;11095;48.066;8.540;2022-09-09T11:47:55;21.10;99.90
21861;DHT22;11095;48.066;8.540;2022-09-09T11:52:48;21.10;99.90
21861;DHT22;11095;48.066;8.540;2022-09-09T11:55:29;21.10;99.90
21861;DHT22;11095;48.066;8.540;2022-09-09T12:00:38;21.10;99.90
21861;DHT22;11095;48.066;8.540;2022-09-09T12:05:51;20.60;99.90
21861;DHT22;11095;48.066;8.540;2022-09-09T12:08:27;20.30;99.90
21861;DHT22;11095;48.066;8.540;2022-09-09T12:10:56;20.20;99.90
21861;DHT22;11095;48.066;8.540;2022-09-09T12:13:27;20.20;99.90
21861;DHT22;11095;48.066;8.540;2022-09-09T12:15:55;20.20;99.90
21861;DHT22;11095;48.066;8.540;2022-09-09T12:18:23;20.10;99.90
21861;DHT22;11095;48.066;8.540;2022-09-09T12:23:31;19.90;99.90
21861;DHT22;11095;48.066;8.540;2022-09-09T12:31:51;20.30;99.90
21861;DHT22;11095;48.066;8.540;2022-09-09T12:34:40;20.60;99.90
21861;DHT22;11095;48.066;8.540;2022-09-09T12:37:42;20.70;99.90
21861;DHT22;11095;48.066;8.540;2022-09-09T12:40:29;21.00;99.90
21861;DHT22;11095;48.066;8.540;2022-09-09T12:42:54;21.30;99.90
21861;DHT22;11095;48.066;8.540;2022-09-09T12:45:23;21.70;99.90
21861;DHT22;11095;48.066;8.540;2022-09-09T12:48:05;21.60;99.90
21861;DHT22;11095;48.066;8.540;2022-09-09T12:50:37;21.70;99.90
21861;DHT22;11095;48.066;8.540;2022-09-09T12:53:25;21.90;99.90
21861;DHT22;11095;48.066;8.540;2022-09-09T12:55:58;21.90;99.90
21861;DHT22;11095;48.066;8.540;2022-09-09T12:58:25;21.70;99.90
21861;DHT22;11095;48.066;8.540;2022-09-09T13:00:54;21.70;99.90
21861;DHT22;11095;48.066;8.540;2022-09-09T13:03:22;21.60;99.90
21861;DHT22;11095;48.066;8.540;2022-09-09T13:05:50;21.60;99.90
21861;DHT22;11095;48.066;8.540;2022-09-09T13:08:17;21.60;99.90
21861;DHT22;11095;48.066;8.540;2022-09-09T13:10:56;21.50;99.90
21861;DHT22;11095;48.066;8.540;2022-09-09T13:13:43;21.40;99.90
21861;DHT22;11095;48.066;8.540;2022-09-09T13:18:45;21.10;99.90
21861;DHT22;11095;48.066;8.540;2022-09-09T13:21:12;21.10;99.90
21861;DHT22;11095;48.066;8.540;2022-09-09T13:23:38;21.10;99.90
21861;DHT22;11095;48.066;8.540;2022-09-09T13:26:19;21.00;99.90
21861;DHT22;11095;48.066;8.540;2022-09-09T13:28:47;21.00;99.90
21861;DHT22;11095;48.066;8.540;2022-09-09T13:31:30;21.10;99.90
21861;DHT22;11095;48.066;8.540;2022-09-09T13:33:57;21.30;99.90
21861;DHT22;11095;48.066;8.540;2022-09-09T13:36:33;21.10;99.90
21861;DHT22;11095;48.066;8.540;2022-09-09T13:39:02;21.20;99.90
21861;DHT22;11095;48.066;8.540;2022-09-09T13:41:35;21.30;99.90
21861;DHT22;11095;48.066;8.540;2022-09-09T13:44:03;21.30;99.90
21861;DHT22;11095;48.066;8.540;2022-09-09T13:46:42;21.40;99.90
21861;DHT22;11095;48.066;8.540;2022-09-09T13:51:45;21.60;99.90
21861;DHT22;11095;48.066;8.540;2022-09-09T13:54:13;21.70;99.90
21861;DHT22;11095;48.066;8.540;2022-09-09T13:56:40;21.70;99.90
21861;DHT22;11095;48.066;8.540;2022-09-09T13:59:15;21.70;99.90
21861;DHT22;11095;48.066;8.540;2022-09-09T14:01:41;21.80;99.90
21861;DHT22;11095;48.066;8.540;2022-09-09T14:04:07;21.80;99.90
21861;DHT22;11095;48.066;8.540;2022-09-09T14:06:35;21.40;99.90
21861;DHT22;11095;48.066;8.540;2022-09-09T14:09:12;21.40;99.90
21861;DHT22;11095;48.066;8.540;2022-09-09T14:11:38;21.40;99.90
21861;DHT22;11095;48.066;8.540;2022-09-09T14:14:04;21.70;99.90
21861;DHT22;11095;48.066;8.540;2022-09-09T14:16:30;21.80;99.90
21861;DHT22;11095;48.066;8.540;2022-09-09T14:18:56;21.70;99.90
21861;DHT22;11095;48.066;8.540;2022-09-09T14:21:23;21.60;99.90
21861;DHT22;11095;48.066;8.540;2022-09-09T14:23:48;21.30;99.90
21861;DHT22;11095;48.066;8.540;2022-09-09T14:26:14;20.90;99.90
21861;DHT22;11095;48.066;8.540;2022-09-09T14:28:40;20.20;99.90
21861;DHT22;11095;48.066;8.540;2022-09-09T14:31:06;19.40;99.90
21861;DHT22;11095;48.066;8.540;2022-09-09T14:33:32;18.80;99.90
21861;DHT22;11095;48.066;8.540;2022-09-09T14:35:59;18.40;99.90
21861;DHT22;11095;48.066;8.540;2022-09-09T14:38:29;18.00;99.90
21861;DHT22;11095;48.066;8.540;2022-09-09T14:40:55;17.90;99.90
21861;DHT22;11095;48.066;8.540;2022-09-09T14:43:21;17.90;99.90
21861;DHT22;11095;48.066;8.540;2022-09-09T14:45:47;18.10;99.90
21861;DHT22;11095;48.066;8.540;2022-09-09T14:48:17;18.40;99.90
21861;DHT22;11095;48.066;8.540;2022-09-09T14:50:43;18.60;99.90
21861;DHT22;11095;48.066;8.540;2022-09-09T14:53:09;18.90;99.90
21861;DHT22;11095;48.066;8.540;2022-09-09T14:55:36;18.90;99.90
21861;DHT22;11095;48.066;8.540;2022-09-09T14:58:03;19.00;99.90
21861;DHT22;11095;48.066;8.540;2022-09-09T15:00:29;19.10;99.90
21861;DHT22;11095;48.066;8.540;2022-09-09T15:02:55;19.10;99.90
21861;DHT22;11095;48.066;8.540;2022-09-09T15:05:21;19.00;99.90
21861;DHT22;11095;48.066;8.540;2022-09-09T15:07:47;19.00;99.90
21861;DHT22;11095;48.066;8.540;2022-09-09T15:10:16;19.00;99.90
21861;DHT22;11095;48.066;8.540;2022-09-09T15:12:43;19.10;99.90
21861;DHT22;11095;48.066;8.540;2022-09-09T15:15:09;19.10;99.90
21861;DHT22;11095;48.066;8.540;2022-09-09T15:17:35;19.20;99.90
21861;DHT22;11095;48.066;8.540;2022-09-09T15:20:04;19.20;99.90
21861;DHT22;11095;48.066;8.540;2022-09-09T15:22:31;19.20;99.90
21861;DHT22;11095;48.066;8.540;2022-09-09T15:24:57;19.20;99.90
21861;DHT22;11095;48.066;8.540;2022-09-09T15:27:23;19.30;99.90
21861;DHT22;11095;48.066;8.540;2022-09-09T15:29:49;19.30;99.90
21861;DHT22;11095;48.066;8.540;2022-09-09T15:32:17;19.40;99.90
21861;DHT22;11095;48.066;8.540;2022-09-09T15:34:42;19.50;99.90
21861;DHT22;11095;48.066;8.540;2022-09-09T15:37:10;19.50;99.90
21861;DHT22;11095;48.066;8.540;2022-09-09T15:39:39;19.50;99.90
21861;DHT22;11095;48.066;8.540;2022-09-09T15:42:05;19.40;99.90
21861;DHT22;11095;48.066;8.540;2022-09-09T15:44:42;19.30;99.90
21861;DHT22;11095;48.066;8.540;2022-09-09T15:47:10;19.20;99.90
21861;DHT22;11095;48.066;8.540;2022-09-09T15:49:37;19.20;99.90
21861;DHT22;11095;48.066;8.540;2022-09-09T15:52:04;19.30;99.90
21861;DHT22;11095;48.066;8.540;2022-09-09T15:54:34;19.20;99.90
21861;DHT22;11095;48.066;8.540;2022-09-09T15:57:02;19.10;99.90
21861;DHT22;11095;48.066;8.540;2022-09-09T15:59:30;18.90;99.90
21861;DHT22;11095;48.066;8.540;2022-09-09T16:01:56;18.70;99.90
21861;DHT22;11095;48.066;8.540;2022-09-09T16:04:23;18.60;99.90
21861;DHT22;11095;48.066;8.540;2022-09-09T16:06:54;18.50;99.90
21861;DHT22;11095;48.066;8.540;2022-09-09T16:09:20;18.40;99.90
21861;DHT22;11095;48.066;8.540;2022-09-09T16:11:46;18.30;99.90
21861;DHT22;11095;48.066;8.540;2022-09-09T16:14:13;18.20;99.90
21861;DHT22;11095;48.066;8.540;2022-09-09T16:16:39;18.10;99.90
21861;DHT22;11095;48.066;8.540;2022-09-09T16:19:09;17.80;99.90
21861;DHT22;11095;48.066;8.540;2022-09-09T16:21:46;17.70;99.90
21861;DHT22;11095;48.066;8.540;2022-09-09T16:24:14;17.60;99.90
21861;DHT22;11095;48.066;8.540;2022-09-09T16:26:46;17.40;99.90
21861;DHT22;11095;48.066;8.540;2022-09-09T16:29:13;17.30;99.90
21861;DHT22;11095;48.066;8.540;2022-09-09T16:31:40;17.20;99.90
21861;DHT22;11095;48.066;8.540;2022-09-09T16:34:06;17.10;99.90
21861;DHT22;11095;48.066;8.540;2022-09-09T16:36:34;17.10;99.90
21861;DHT22;11095;48.066;8.540;2022-09-09T16:39:02;17.10;99.90
21861;DHT22;11095;48.066;8.540;2022-09-09T16:41:29;17.10;99.90
21861;DHT22;11095;48.066;8.540;2022-09-09T16:43:57;17.10;99.90
21861;DHT22;11095;48.066;8.540;2022-09-09T16:46:26;17.00;99.90
21861;DHT22;11095;48.066;8.540;2022-09-09T16:48:53;17.10;99.90
21861;DHT22;11095;48.066;8.540;2022-09-09T16:51:28;17.00;99.90
21861;DHT22;11095;48.066;8.540;2022-09-09T16:53:55;17.00;99.90
21861;DHT22;11095;48.066;8.540;2022-09-09T16:56:22;16.90;99.90
21861;DHT22;11095;48.066;8.540;2022-09-09T16:58:52;16.90;99.90
21861;DHT22;11095;48.066;8.540;2022-09-09T17:01:19;16.90;99.90
21861;DHT22;11095;48.066;8.540;2022-09-09T17:03:44;16.80;99.90
21861;DHT22;11095;48.066;8.540;2022-09-09T17:06:12;16.80;99.90
21861;DHT22;11095;48.066;8.540;2022-09-09T17:08:41;16.70;99.90
21861;DHT22;11095;48.066;8.540;2022-09-09T17:11:18;16.70;99.90
21861;DHT22;11095;48.066;8.540;2022-09-09T17:13:47;16.70;99.90
21861;DHT22;11095;48.066;8.540;2022-09-09T17:16:16;16.60;99.90
21861;DHT22;11095;48.066;8.540;2022-09-09T17:18:42;16.50;99.90
21861;DHT22;11095;48.066;8.540;2022-09-09T17:21:10;16.50;99.90
21861;DHT22;11095;48.066;8.540;2022-09-09T17:23:37;16.40;99.90
21861;DHT22;11095;48.066;8.540;2022-09-09T17:26:08;16.10;99.90
21861;DHT22;11095;48.066;8.540;2022-09-09T17:28:35;15.80;99.90
21861;DHT22;11095;48.066;8.540;2022-09-09T17:31:02;15.60;99.90
21861;DHT22;11095;48.066;8.540;2022-09-09T17:33:30;15.30;99.90
21861;DHT22;11095;48.066;8.540;2022-09-09T17:35:57;15.10;99.90
21861;DHT22;11095;48.066;8.540;2022-09-09T17:38:24;14.90;99.90
21861;DHT22;11095;48.066;8.540;2022-09-09T17:41:04;14.60;99.90
21861;DHT22;11095;48.066;8.540;2022-09-09T17:43:30;14.40;99.90
21861;DHT22;11095;48.066;8.540;2022-09-09T17:45:56;14.30;99.90
21861;DHT22;11095;48.066;8.540;2022-09-09T17:48:30;14.20;99.90
21861;DHT22;11095;48.066;8.540;2022-09-09T17:50:59;14.10;99.90
21861;DHT22;11095;48.066;8.540;2022-09-09T17:53:25;14.10;99.90
21861;DHT22;11095;48.066;8.540;2022-09-09T17:55:51;14.00;99.90
21861;DHT22;11095;48.066;8.540;2022-09-09T17:58:17;14.00;99.90
21861;DHT22;11095;48.066;8.540;2022-09-09T18:00:42;13.90;99.90
21861;DHT22;11095;48.066;8.540;2022-09-09T18:03:08;13.80;99.90
21861;DHT22;11095;48.066;8.540;2022-09-09T18:05:34;13.70;99.90
21861;DHT22;11095;48.066;8.540;2022-09-09T18:08:00;13.60;99.90
21861;DHT22;11095;48.066;8.540;2022-09-09T18:10:25;13.50;99.90
21861;DHT22;11095;48.066;8.540;2022-09-09T18:12:51;13.40;99.90